createdAt,value
2022-10-15T00:01:18.121Z,10.90
2022-10-15T00:04:03.891Z,10.89
2022-10-15T00:06:49.117Z,10.88
2022-10-15T00:09:34.402Z,10.84
2022-10-15T00:12:19.493Z,10.86
2022-10-15T00:15:05.518Z,10.82
2022-10-15T00:17:50.762Z,10.86
2022-10-15T00:20:35.858Z,10.67
2022-10-15T00:23:20.766Z,10.69
2022-10-15T00:26:09.277Z,10.61
2022-10-15T00:28:57.432Z,10.71
2022-10-15T00:31:42.669Z,10.67
2022-10-15T00:34:27.675Z,10.62
2022-10-15T00:37:13.262Z,10.60
2022-10-15T00:39:58.558Z,10.60
2022-10-15T00:42:43.760Z,10.64
2022-10-15T00:45:28.937Z,10.54
2022-10-15T00:48:14.154Z,10.58
2022-10-15T00:51:04.225Z,10.62
2022-10-15T00:53:49.952Z,10.60
2022-10-15T00:56:37.635Z,10.64
2022-10-15T00:59:26.686Z,10.59
2022-10-15T01:02:13.459Z,10.56
2022-10-15T01:04:58.479Z,10.41
2022-10-15T01:07:43.851Z,10.49
2022-10-15T01:10:42.642Z,10.47
2022-10-15T01:14:05.379Z,10.48
2022-10-15T01:17:00.147Z,10.27
2022-10-15T01:20:00.416Z,10.41
2022-10-15T01:22:48.485Z,10.45
2022-10-15T01:25:54.411Z,10.45
2022-10-15T01:28:53.267Z,10.50
2022-10-15T01:31:45.929Z,10.51
2022-10-15T01:34:56.391Z,10.47
2022-10-15T01:37:52.030Z,10.41
2022-10-15T01:40:43.765Z,10.41
2022-10-15T01:43:34.102Z,10.32
2022-10-15T01:46:24.309Z,10.29
2022-10-15T01:49:14.081Z,10.10
2022-10-15T01:52:01.739Z,10.12
2022-10-15T01:54:49.497Z,10.16
2022-10-15T01:57:36.510Z,10.15
2022-10-15T02:00:21.469Z,10.08
2022-10-15T02:03:06.685Z,10.14
2022-10-15T02:06:16.047Z,10.15
2022-10-15T02:09:30.934Z,10.14
2022-10-15T02:12:30.733Z,9.98
2022-10-15T02:15:24.412Z,10.04
2022-10-15T02:18:38.490Z,10.01
2022-10-15T02:21:41.867Z,9.98
2022-10-15T02:24:33.261Z,9.92
2022-10-15T02:27:20.517Z,9.92
2022-10-15T02:30:08.488Z,9.92
2022-10-15T02:32:58.361Z,9.78
2022-10-15T02:35:47.313Z,9.76
2022-10-15T02:38:33.200Z,9.84
2022-10-15T02:41:18.754Z,9.91
2022-10-15T02:44:04.189Z,9.68
2022-10-15T02:46:49.547Z,9.82
2022-10-15T02:49:34.709Z,9.77
2022-10-15T02:52:20.019Z,9.57
2022-10-15T02:55:06.098Z,9.56
2022-10-15T02:57:51.073Z,9.61
2022-10-15T03:00:36.052Z,9.55
2022-10-15T03:03:21.136Z,9.47
2022-10-15T03:06:06.814Z,9.36
2022-10-15T03:08:51.772Z,9.34
2022-10-15T03:11:38.465Z,9.32
2022-10-15T03:14:23.841Z,9.35
2022-10-15T03:17:09.003Z,9.28
2022-10-15T03:19:54.150Z,9.14
2022-10-15T03:22:39.443Z,9.22
2022-10-15T03:25:24.701Z,9.25
2022-10-15T03:28:09.735Z,9.23
2022-10-15T03:30:54.696Z,9.29
2022-10-15T03:33:39.817Z,9.35
2022-10-15T03:36:24.818Z,9.35
2022-10-15T03:39:11.970Z,9.31
2022-10-15T03:41:56.914Z,9.25
2022-10-15T03:44:42.047Z,9.24
2022-10-15T03:47:27.211Z,9.20
2022-10-15T03:50:12.767Z,9.21
2022-10-15T03:52:58.217Z,9.23
2022-10-15T03:55:43.076Z,9.31
2022-10-15T03:58:28.032Z,9.32
2022-10-15T04:01:15.763Z,9.36
2022-10-15T04:04:00.633Z,9.41
2022-10-15T04:06:47.831Z,9.42
2022-10-15T04:09:32.933Z,9.43
2022-10-15T04:12:18.342Z,9.46
2022-10-15T04:15:04.212Z,9.46
2022-10-15T04:17:49.527Z,9.44
2022-10-15T04:20:34.629Z,9.45
2022-10-15T04:23:19.622Z,9.43
2022-10-15T04:26:06.221Z,9.44
2022-10-15T04:28:51.145Z,9.41
2022-10-15T04:31:37.493Z,9.31
2022-10-15T04:34:22.452Z,9.44
2022-10-15T04:37:07.587Z,9.46
2022-10-15T04:39:52.527Z,9.33
2022-10-15T04:42:37.759Z,9.47
2022-10-15T04:48:09.026Z,9.47
2022-10-15T04:50:54.001Z,9.47
2022-10-15T04:53:39.698Z,9.45
2022-10-15T04:56:24.961Z,9.50
2022-10-15T04:59:10.271Z,9.51
2022-10-15T05:01:55.457Z,9.49
2022-10-15T05:04:40.641Z,9.48
2022-10-15T05:07:26.393Z,9.55
2022-10-15T05:10:11.919Z,9.60
2022-10-15T05:12:57.107Z,9.58
2022-10-15T05:15:41.992Z,9.58
2022-10-15T05:18:27.098Z,9.60
2022-10-15T05:21:12.875Z,9.50
2022-10-15T05:23:59.314Z,9.57
2022-10-15T05:26:44.627Z,9.52
2022-10-15T05:29:30.098Z,9.57
2022-10-15T05:32:15.002Z,9.52
2022-10-15T05:34:59.869Z,9.52
2022-10-15T05:37:45.484Z,9.54
2022-10-15T05:40:30.913Z,9.62
2022-10-15T05:43:16.176Z,9.60
2022-10-15T05:46:01.513Z,9.56
2022-10-15T05:48:55.524Z,9.67
2022-10-15T05:51:40.467Z,9.68
2022-10-15T05:54:25.358Z,9.74
2022-10-15T05:57:10.331Z,9.69
2022-10-15T05:59:55.288Z,9.64
2022-10-15T06:02:40.542Z,9.46
2022-10-15T06:05:25.615Z,9.62
2022-10-15T06:08:10.861Z,9.71
2022-10-15T06:10:56.583Z,9.74
2022-10-15T06:13:42.911Z,9.70
2022-10-15T06:16:28.190Z,9.71
2022-10-15T06:19:15.165Z,9.69
2022-10-15T06:22:00.332Z,9.74
2022-10-15T06:24:45.301Z,9.61
2022-10-15T06:27:30.728Z,9.70
2022-10-15T06:30:15.817Z,9.64
2022-10-15T06:33:01.212Z,9.62
2022-10-15T06:35:46.368Z,9.61
2022-10-15T06:38:32.396Z,9.60
2022-10-15T06:41:17.702Z,9.67
2022-10-15T06:44:02.788Z,9.60
2022-10-15T06:46:47.791Z,9.55
2022-10-15T06:49:33.046Z,9.55
2022-10-15T06:52:18.374Z,9.35
2022-10-15T06:55:04.770Z,9.41
2022-10-15T06:57:50.576Z,9.37
2022-10-15T07:03:25.546Z,9.37
2022-10-15T07:06:10.562Z,9.38
2022-10-15T07:08:55.841Z,9.18
2022-10-15T07:11:40.807Z,9.40
2022-10-15T07:14:25.893Z,9.28
2022-10-15T07:17:10.837Z,9.42
2022-10-15T07:19:55.727Z,9.42
2022-10-15T07:22:40.793Z,9.53
2022-10-15T07:25:26.920Z,9.55
2022-10-15T07:28:12.014Z,9.59
2022-10-15T07:31:04.940Z,9.62
2022-10-15T07:33:50.230Z,9.70
2022-10-15T07:36:35.302Z,10.07
2022-10-15T07:39:20.307Z,9.95
2022-10-15T07:42:05.349Z,10.07
2022-10-15T07:44:50.527Z,10.07
2022-10-15T07:47:35.462Z,10.11
2022-10-15T07:50:21.262Z,10.09
2022-10-15T07:53:06.322Z,10.07
2022-10-15T07:55:51.336Z,10.12
2022-10-15T07:58:38.199Z,10.05
2022-10-15T08:01:23.430Z,10.06
2022-10-15T08:04:08.533Z,10.00
2022-10-15T08:06:53.738Z,10.14
2022-10-15T08:09:38.846Z,10.18
2022-10-15T08:12:24.357Z,10.23
2022-10-15T08:15:10.361Z,10.25
2022-10-15T08:17:55.677Z,10.38
2022-10-15T08:20:40.828Z,10.27
2022-10-15T08:23:26.301Z,10.43
2022-10-15T08:26:11.620Z,10.49
2022-10-15T08:28:56.894Z,10.59
2022-10-15T08:31:42.607Z,10.68
2022-10-15T08:34:27.806Z,10.77
2022-10-15T08:40:04.703Z,10.93
2022-10-15T08:42:51.002Z,11.07
2022-10-15T08:45:42.389Z,10.95
2022-10-15T08:48:31.939Z,11.12
2022-10-15T08:51:19.146Z,11.24
2022-10-15T08:54:06.498Z,11.25
2022-10-15T08:57:02.518Z,11.53
2022-10-15T09:00:10.628Z,11.75
2022-10-15T09:03:09.745Z,11.84
2022-10-15T09:06:14.846Z,11.97
2022-10-15T09:09:06.286Z,12.07
2022-10-15T09:12:08.145Z,12.27
2022-10-15T09:14:57.053Z,12.49
2022-10-15T09:17:46.767Z,12.69
2022-10-15T09:20:36.851Z,12.83
2022-10-15T09:23:26.162Z,12.99
2022-10-15T09:26:37.934Z,13.09
2022-10-15T09:29:41.611Z,13.20
2022-10-15T09:32:36.006Z,13.34
2022-10-15T09:35:42.117Z,13.46
2022-10-15T09:38:48.507Z,13.55
2022-10-15T09:41:45.389Z,13.66
2022-10-15T09:44:37.037Z,13.72
2022-10-15T09:47:30.369Z,13.89
2022-10-15T09:53:28.317Z,14.10
2022-10-15T09:56:19.453Z,14.18
2022-10-15T09:59:08.807Z,14.26
2022-10-15T10:02:03.984Z,14.33
2022-10-15T10:04:51.300Z,14.47
2022-10-15T10:07:38.504Z,14.55
2022-10-15T10:10:28.622Z,14.67
2022-10-15T10:13:39.985Z,14.82
2022-10-15T10:16:26.764Z,14.91
2022-10-15T10:19:14.223Z,15.08
2022-10-15T10:22:13.381Z,15.19
2022-10-15T10:24:58.726Z,15.29
2022-10-15T10:27:46.337Z,15.21
2022-10-15T10:30:56.017Z,15.38
2022-10-15T10:33:49.929Z,15.47
2022-10-15T10:36:39.392Z,15.68
2022-10-15T10:39:30.009Z,15.67
2022-10-15T10:42:19.481Z,15.82
2022-10-15T10:45:24.011Z,15.91
2022-10-15T10:48:19.925Z,16.13
2022-10-15T10:51:09.265Z,16.05
2022-10-15T10:53:54.937Z,16.20
2022-10-15T10:56:45.060Z,16.07
2022-10-15T10:59:35.877Z,16.17
2022-10-15T11:02:20.971Z,16.27
2022-10-15T11:05:06.606Z,16.20
2022-10-15T11:08:15.314Z,16.37
2022-10-15T11:11:21.890Z,16.37
2022-10-15T11:14:20.627Z,16.45
2022-10-15T11:17:24.075Z,16.03
2022-10-15T11:20:32.138Z,16.36
2022-10-15T11:23:45.892Z,16.68
2022-10-15T11:26:58.739Z,16.83
2022-10-15T11:30:09.169Z,16.92
2022-10-15T11:33:07.804Z,17.12
2022-10-15T11:36:40.112Z,17.37
2022-10-15T11:39:25.048Z,17.43
2022-10-15T11:42:24.888Z,16.92
2022-10-15T11:45:22.271Z,16.57
2022-10-15T11:48:25.821Z,16.35
2022-10-15T11:51:16.696Z,16.34
2022-10-15T11:54:26.608Z,16.27
2022-10-15T11:57:12.961Z,16.31
2022-10-15T12:00:11.780Z,16.36
2022-10-15T12:03:04.161Z,16.30
2022-10-15T12:05:53.636Z,16.25
2022-10-15T12:08:40.054Z,16.17
2022-10-15T12:11:40.870Z,15.89
2022-10-15T12:14:45.844Z,15.64
2022-10-15T12:17:48.202Z,15.30
2022-10-15T12:20:33.301Z,15.10
2022-10-15T12:23:41.712Z,14.94
2022-10-15T12:26:34.748Z,14.86
2022-10-15T12:29:21.800Z,15.13
2022-10-15T12:32:22.445Z,15.10
2022-10-15T12:35:16.604Z,15.52
2022-10-15T12:38:26.701Z,15.73
2022-10-15T12:41:14.343Z,15.83
2022-10-15T12:44:15.503Z,15.87
2022-10-15T12:47:00.647Z,15.63
2022-10-15T12:49:47.529Z,15.59
2022-10-15T12:52:55.414Z,15.55
2022-10-15T12:55:40.484Z,15.58
2022-10-15T12:58:34.385Z,15.65
2022-10-15T13:01:19.557Z,15.64
2022-10-15T13:04:04.687Z,15.63
2022-10-15T13:06:50.089Z,15.81
2022-10-15T13:09:35.252Z,15.92
2022-10-15T13:12:28.535Z,16.00
2022-10-15T13:15:16.252Z,15.82
2022-10-15T13:18:08.937Z,15.66
2022-10-15T13:20:56.421Z,15.44
2022-10-15T13:23:46.946Z,15.52
2022-10-15T13:26:32.155Z,15.51
2022-10-15T13:29:20.213Z,15.55
2022-10-15T13:32:15.214Z,15.70
2022-10-15T13:35:02.694Z,15.65
2022-10-15T13:37:49.191Z,15.67
2022-10-15T13:40:34.180Z,15.86
2022-10-15T13:43:22.651Z,16.08
2022-10-15T13:46:15.547Z,16.12
2022-10-15T13:49:10.259Z,16.08
2022-10-15T13:51:55.868Z,16.07
2022-10-15T13:54:45.339Z,16.23
2022-10-15T13:57:30.871Z,16.08
2022-10-15T14:00:25.887Z,15.96
2022-10-15T14:03:20.642Z,15.71
2022-10-15T14:06:30.163Z,15.76
2022-10-15T14:09:26.739Z,16.10
2022-10-15T14:12:12.272Z,16.62
2022-10-15T14:15:35.851Z,16.56
2022-10-15T14:18:30.109Z,16.36
2022-10-15T14:21:19.031Z,16.23
2022-10-15T14:24:12.189Z,16.24
2022-10-15T14:27:04.427Z,16.19
2022-10-15T14:29:52.429Z,16.52
2022-10-15T14:32:51.589Z,17.29
2022-10-15T14:35:37.961Z,17.71
2022-10-15T14:38:25.757Z,17.82
2022-10-15T14:41:26.728Z,18.04
2022-10-15T14:44:11.853Z,18.16
2022-10-15T14:47:03.326Z,17.62
2022-10-15T14:49:51.125Z,17.60
2022-10-15T14:52:37.253Z,17.49
2022-10-15T14:55:52.372Z,17.23
2022-10-15T14:58:38.878Z,17.29
2022-10-15T15:01:24.796Z,17.07
2022-10-15T15:04:34.209Z,16.82
2022-10-15T15:07:20.908Z,16.93
2022-10-15T15:10:08.683Z,16.91
2022-10-15T15:12:56.642Z,16.85
2022-10-15T15:15:42.084Z,16.73
2022-10-15T15:18:28.288Z,16.65
2022-10-15T15:21:20.677Z,16.62
2022-10-15T15:24:06.077Z,16.47
2022-10-15T15:26:50.917Z,16.40
2022-10-15T15:29:36.057Z,16.27
2022-10-15T15:32:22.655Z,15.94
2022-10-15T15:35:39.052Z,16.02
2022-10-15T15:38:30.784Z,15.94
2022-10-15T15:41:20.342Z,15.84
2022-10-15T15:44:07.379Z,15.74
2022-10-15T15:46:55.136Z,15.60
2022-10-15T15:49:41.003Z,15.54
2022-10-15T15:52:26.058Z,15.48
2022-10-15T15:55:12.368Z,15.44
2022-10-15T15:57:57.956Z,15.36
2022-10-15T16:00:43.065Z,15.31
2022-10-15T16:03:28.317Z,15.39
2022-10-15T16:06:14.015Z,15.22
2022-10-15T16:08:59.509Z,15.36
2022-10-15T16:11:45.241Z,15.30
2022-10-15T16:14:30.216Z,15.33
2022-10-15T16:17:15.417Z,15.35
2022-10-15T16:20:00.509Z,15.33
2022-10-15T16:22:49.676Z,15.28
2022-10-15T16:25:34.598Z,15.20
2022-10-15T16:28:19.455Z,15.11
2022-10-15T16:31:36.775Z,15.03
2022-10-15T16:34:21.850Z,14.95
2022-10-15T16:37:07.483Z,14.90
2022-10-15T16:39:52.578Z,14.72
2022-10-15T16:42:37.954Z,14.77
2022-10-15T16:45:23.632Z,14.75
2022-10-15T16:48:08.549Z,14.69
2022-10-15T16:51:08.743Z,14.60
2022-10-15T16:53:54.753Z,14.59
2022-10-15T16:56:39.835Z,14.53
2022-10-15T16:59:24.983Z,14.46
2022-10-15T17:02:10.277Z,14.34
2022-10-15T17:04:55.653Z,14.37
2022-10-15T17:07:40.860Z,14.33
2022-10-15T17:10:26.143Z,14.27
2022-10-15T17:13:11.475Z,14.24
2022-10-15T17:15:59.217Z,14.19
2022-10-15T17:18:46.829Z,14.12
2022-10-15T17:21:32.490Z,14.10
2022-10-15T17:24:18.865Z,14.05
2022-10-15T17:27:03.922Z,13.89
2022-10-15T17:29:49.189Z,14.05
2022-10-15T17:32:34.076Z,13.95
2022-10-15T17:35:19.674Z,13.93
2022-10-15T17:38:04.801Z,13.92
2022-10-15T17:40:50.170Z,13.88
2022-10-15T17:43:39.243Z,13.84
2022-10-15T17:46:28.393Z,13.79
2022-10-15T17:49:18.102Z,13.81
2022-10-15T17:52:03.344Z,13.80
2022-10-15T17:54:48.411Z,13.77
2022-10-15T17:57:33.513Z,13.76
2022-10-15T18:00:19.012Z,13.78
2022-10-15T18:03:04.163Z,13.77
2022-10-15T18:05:49.599Z,13.77
2022-10-15T18:08:34.865Z,13.75
2022-10-15T18:11:33.120Z,13.63
2022-10-15T18:14:18.470Z,13.70
2022-10-15T18:17:04.559Z,13.58
2022-10-15T18:19:49.822Z,13.70
2022-10-15T18:22:34.990Z,13.58
2022-10-15T18:25:20.211Z,13.68
2022-10-15T18:28:07.504Z,13.68
2022-10-15T18:30:52.721Z,13.66
2022-10-15T18:33:42.296Z,13.65
2022-10-15T18:36:29.722Z,13.58
2022-10-15T18:39:14.605Z,13.40
2022-10-15T18:41:59.629Z,13.23
2022-10-15T18:44:44.585Z,13.21
2022-10-15T18:47:29.889Z,13.14
2022-10-15T18:50:15.159Z,13.09
2022-10-15T18:53:03.086Z,13.04
2022-10-15T18:55:48.536Z,13.00
2022-10-15T18:58:33.945Z,12.97
2022-10-15T19:01:25.199Z,12.91
2022-10-15T19:04:13.254Z,12.89
2022-10-15T19:07:02.154Z,12.86
2022-10-15T19:09:47.110Z,12.83
2022-10-15T19:12:32.396Z,12.69
2022-10-15T19:15:17.523Z,12.76
2022-10-15T19:18:05.645Z,12.73
2022-10-15T19:20:50.907Z,12.75
2022-10-15T19:23:35.753Z,12.74
2022-10-15T19:26:20.738Z,12.68
2022-10-15T19:29:06.189Z,12.64
2022-10-15T19:31:52.626Z,12.61
2022-10-15T19:34:37.687Z,12.62
2022-10-15T19:37:22.712Z,12.63
2022-10-15T19:40:08.863Z,12.66
2022-10-15T19:42:53.917Z,12.53
2022-10-15T19:45:43.072Z,12.64
2022-10-15T19:48:28.056Z,12.60
2022-10-15T19:51:13.174Z,12.57
2022-10-15T19:53:59.979Z,12.57
2022-10-15T19:56:45.349Z,12.53
2022-10-15T19:59:30.306Z,12.50
2022-10-15T20:02:15.353Z,12.36
2022-10-15T20:05:00.205Z,12.36
2022-10-15T20:07:45.332Z,12.33
2022-10-15T20:10:30.277Z,12.44
2022-10-15T20:13:15.737Z,12.35
2022-10-15T20:16:07.054Z,12.22
2022-10-15T20:18:52.086Z,12.20
2022-10-15T20:21:37.283Z,12.36
2022-10-15T20:24:22.344Z,12.42
2022-10-15T20:27:07.368Z,12.27
2022-10-15T20:29:52.366Z,12.41
2022-10-15T20:32:37.882Z,12.42
2022-10-15T20:35:23.224Z,12.43
2022-10-15T20:38:08.620Z,12.49
2022-10-15T20:40:53.805Z,12.53
2022-10-15T20:43:39.528Z,12.47
2022-10-15T20:46:32.804Z,12.58
2022-10-15T20:49:22.943Z,12.56
2022-10-15T20:52:07.914Z,12.55
2022-10-15T20:54:54.677Z,12.57
2022-10-15T20:57:40.402Z,12.58
2022-10-15T21:00:25.373Z,12.58
2022-10-15T21:03:10.725Z,12.61
2022-10-15T21:05:55.811Z,12.62
2022-10-15T21:08:40.877Z,12.62
2022-10-15T21:11:26.131Z,12.63
2022-10-15T21:14:12.513Z,12.56
2022-10-15T21:16:57.765Z,12.62
2022-10-15T21:19:42.709Z,12.61
2022-10-15T21:22:27.899Z,12.50
2022-10-15T21:25:12.857Z,12.60
2022-10-15T21:27:57.869Z,12.67
2022-10-15T21:30:42.782Z,12.69
2022-10-15T21:33:27.840Z,12.60
2022-10-15T21:36:21.519Z,12.68
2022-10-15T21:39:08.054Z,12.69
2022-10-15T21:41:53.094Z,12.69
2022-10-15T21:44:38.374Z,12.71
2022-10-15T21:47:23.226Z,12.69
2022-10-15T21:50:08.500Z,12.67
2022-10-15T21:52:53.567Z,12.70
2022-10-15T21:55:38.403Z,12.65
2022-10-15T21:58:23.319Z,12.72
2022-10-15T22:01:20.739Z,12.72
2022-10-15T22:04:08.322Z,12.64
2022-10-15T22:06:53.501Z,12.71
2022-10-15T22:09:38.429Z,12.72
2022-10-15T22:12:24.178Z,12.73
2022-10-15T22:15:09.869Z,12.74
2022-10-15T22:17:54.842Z,12.61
2022-10-15T22:23:29.437Z,12.75
2022-10-15T22:26:16.016Z,12.77
2022-10-15T22:29:03.629Z,12.77
2022-10-15T22:31:50.080Z,12.76
2022-10-15T22:34:35.214Z,12.73
2022-10-15T22:37:20.820Z,12.58
2022-10-15T22:40:05.992Z,12.69
2022-10-15T22:42:51.095Z,12.71
2022-10-15T22:45:36.018Z,12.69
2022-10-15T22:48:21.042Z,12.67
2022-10-15T22:51:09.071Z,12.66
2022-10-15T22:53:55.629Z,12.64
2022-10-15T22:56:41.120Z,12.65
2022-10-15T22:59:26.387Z,12.66
2022-10-15T23:02:11.613Z,12.64
2022-10-15T23:04:56.428Z,12.63
2022-10-15T23:07:44.409Z,12.66
2022-10-15T23:10:29.655Z,12.63
2022-10-15T23:13:15.158Z,12.60
2022-10-15T23:16:13.930Z,12.63
2022-10-15T23:19:01.937Z,12.51
2022-10-15T23:21:50.324Z,12.62
2022-10-15T23:24:35.861Z,12.51
2022-10-15T23:27:20.998Z,12.64
2022-10-15T23:30:20.846Z,12.63
2022-10-15T23:33:09.338Z,12.63
2022-10-15T23:35:59.522Z,12.62
2022-10-15T23:38:45.872Z,12.65
2022-10-15T23:41:31.503Z,12.67
2022-10-15T23:44:17.000Z,12.62
2022-10-15T23:47:02.102Z,12.65
2022-10-15T23:49:47.452Z,12.68
2022-10-15T23:52:32.402Z,12.65
2022-10-15T23:55:17.514Z,12.65
2022-10-15T23:58:02.538Z,12.68
